createdAt,value
2023-02-23T00:02:07.857Z,0.75
2023-02-23T00:04:36.726Z,1.09
2023-02-23T00:07:06.326Z,0.69
2023-02-23T00:09:36.756Z,0.97
2023-02-23T00:12:09.170Z,0.81
2023-02-23T00:14:38.183Z,0.74
2023-02-23T00:17:14.406Z,0.50
2023-02-23T00:19:43.895Z,0.70
2023-02-23T00:22:12.835Z,0.98
2023-02-23T00:24:42.630Z,0.46
2023-02-23T00:27:10.751Z,0.45
2023-02-23T00:29:40.433Z,0.40
2023-02-23T00:32:08.273Z,0.18
2023-02-23T00:34:36.998Z,0.65
2023-02-23T00:37:05.506Z,0.89
2023-02-23T00:39:33.065Z,0.21
2023-02-23T00:42:03.095Z,0.44
2023-02-23T00:44:32.487Z,0.28
2023-02-23T00:47:01.141Z,-0.07
2023-02-23T00:49:28.847Z,0.28
2023-02-23T00:51:56.161Z,0.15
2023-02-23T00:54:23.819Z,-0.13
2023-02-23T00:56:51.680Z,0.16
2023-02-23T00:59:20.216Z,-0.14
2023-02-23T01:01:48.289Z,0.10
2023-02-23T01:04:16.839Z,-0.09
2023-02-23T01:06:44.128Z,0.00
2023-02-23T01:09:16.233Z,0.01
2023-02-23T01:11:46.963Z,0.32
2023-02-23T01:14:15.235Z,0.34
2023-02-23T01:16:42.595Z,0.36
2023-02-23T01:19:10.576Z,0.32
2023-02-23T01:21:42.106Z,0.30
2023-02-23T01:24:10.503Z,-0.02
2023-02-23T01:26:40.801Z,-0.11
2023-02-23T01:29:12.875Z,-0.26
2023-02-23T01:31:43.572Z,-0.31
2023-02-23T01:34:13.027Z,-0.26
2023-02-23T01:36:42.782Z,-0.22
2023-02-23T01:39:16.024Z,-0.30
2023-02-23T01:41:44.518Z,-0.10
2023-02-23T01:44:15.183Z,-0.05
2023-02-23T01:46:45.517Z,-0.53
2023-02-23T01:49:26.099Z,-0.58
2023-02-23T01:52:03.050Z,-0.35
2023-02-23T01:54:38.991Z,-0.40
2023-02-23T01:57:09.021Z,-0.16
2023-02-23T01:59:42.035Z,-0.32
2023-02-23T02:02:09.694Z,-0.04
2023-02-23T02:04:45.797Z,-0.43
2023-02-23T02:07:17.816Z,-0.51
2023-02-23T02:10:17.183Z,-0.54
2023-02-23T02:12:47.058Z,-0.29
2023-02-23T02:15:18.146Z,-0.21
2023-02-23T02:17:57.082Z,-0.23
2023-02-23T02:20:42.889Z,-0.48
2023-02-23T02:23:16.182Z,-0.14
2023-02-23T02:26:01.701Z,-0.54
2023-02-23T02:28:44.987Z,-0.68
2023-02-23T02:31:42.703Z,-0.48
2023-02-23T02:34:42.953Z,-0.61
2023-02-23T02:37:36.707Z,-0.69
2023-02-23T02:40:37.158Z,-0.57
2023-02-23T02:43:21.296Z,-0.66
2023-02-23T02:45:57.217Z,-0.84
2023-02-23T02:48:31.317Z,-0.39
2023-02-23T02:51:04.094Z,-0.52
2023-02-23T02:53:58.965Z,-1.02
2023-02-23T02:56:27.409Z,-0.78
2023-02-23T02:58:56.080Z,-0.27
2023-02-23T03:01:41.868Z,-0.87
2023-02-23T03:04:43.956Z,-0.67
2023-02-23T03:07:43.903Z,-1.04
2023-02-23T03:11:00.478Z,-0.82
2023-02-23T03:14:22.758Z,-0.81
2023-02-23T03:17:19.714Z,-1.08
2023-02-23T03:20:22.322Z,-0.98
2023-02-23T03:23:18.030Z,-1.06
2023-02-23T03:26:59.316Z,-1.00
2023-02-23T03:29:55.752Z,-0.96
2023-02-23T03:33:00.337Z,-0.67
2023-02-23T03:35:57.675Z,-0.92
2023-02-23T03:39:03.855Z,-0.53
2023-02-23T03:41:52.529Z,-1.02
2023-02-23T03:44:46.608Z,-0.83
2023-02-23T03:47:37.107Z,-1.15
2023-02-23T03:50:28.594Z,-1.32
2023-02-23T03:53:19.141Z,-1.32
2023-02-23T03:56:11.908Z,-1.02
2023-02-23T03:59:03.502Z,-1.22
2023-02-23T04:01:51.396Z,-1.17
2023-02-23T04:04:39.074Z,-0.81
2023-02-23T04:07:26.862Z,-1.15
2023-02-23T04:10:13.176Z,-1.32
2023-02-23T04:13:05.436Z,-1.35
2023-02-23T04:15:34.108Z,-1.15
2023-02-23T04:18:04.705Z,-1.37
2023-02-23T04:20:33.602Z,-1.12
2023-02-23T04:23:01.231Z,-1.08
2023-02-23T04:25:30.204Z,-1.24
2023-02-23T04:27:57.438Z,-1.26
2023-02-23T04:30:25.993Z,-0.92
2023-02-23T04:32:53.550Z,-1.26
2023-02-23T04:35:21.215Z,-1.01
2023-02-23T04:37:48.543Z,-1.10
2023-02-23T04:40:16.185Z,-1.09
2023-02-23T04:42:43.461Z,-0.76
2023-02-23T04:45:11.395Z,-1.07
2023-02-23T04:47:38.859Z,-1.07
2023-02-23T04:50:06.889Z,-1.29
2023-02-23T04:52:35.138Z,-1.19
2023-02-23T04:55:02.656Z,-0.94
2023-02-23T04:57:29.960Z,-1.04
2023-02-23T04:59:57.589Z,-0.86
2023-02-23T05:02:25.220Z,-1.25
2023-02-23T05:04:52.862Z,-1.33
2023-02-23T05:07:20.114Z,-0.93
2023-02-23T05:09:47.654Z,-1.17
2023-02-23T05:12:15.116Z,-1.13
2023-02-23T05:14:42.628Z,-1.21
2023-02-23T05:17:09.916Z,-1.27
2023-02-23T05:19:38.029Z,-1.39
2023-02-23T05:22:05.354Z,-1.19
2023-02-23T05:24:33.103Z,-1.43
2023-02-23T05:27:00.616Z,-0.98
2023-02-23T05:29:28.123Z,-1.48
2023-02-23T05:31:55.466Z,-1.45
2023-02-23T05:34:23.165Z,-1.24
2023-02-23T05:36:50.401Z,-1.33
2023-02-23T05:39:17.982Z,-1.10
2023-02-23T05:41:45.407Z,-1.47
2023-02-23T05:44:13.177Z,-1.42
2023-02-23T05:46:40.521Z,-1.32
2023-02-23T05:49:08.083Z,-1.35
2023-02-23T05:51:35.661Z,-1.03
2023-02-23T05:54:03.275Z,-1.21
2023-02-23T05:56:30.519Z,-1.41
2023-02-23T05:58:59.399Z,-1.38
2023-02-23T06:01:27.815Z,-1.64
2023-02-23T06:03:56.213Z,-1.72
2023-02-23T06:06:25.494Z,-1.23
2023-02-23T06:08:53.605Z,-1.30
2023-02-23T06:11:21.608Z,-1.12
2023-02-23T06:13:49.746Z,-1.21
2023-02-23T06:16:17.254Z,-1.02
2023-02-23T06:18:44.997Z,-1.25
2023-02-23T06:21:12.230Z,-0.87
2023-02-23T06:23:39.790Z,-1.30
2023-02-23T06:26:07.874Z,-1.39
2023-02-23T06:28:35.560Z,-1.40
2023-02-23T06:31:02.861Z,-1.49
2023-02-23T06:33:30.449Z,-1.55
2023-02-23T06:35:57.822Z,-1.30
2023-02-23T06:38:25.318Z,-1.08
2023-02-23T06:40:52.615Z,-1.79
2023-02-23T06:43:22.228Z,-1.24
2023-02-23T06:45:50.522Z,-1.15
2023-02-23T06:48:18.032Z,-1.47
2023-02-23T06:50:45.260Z,-0.94
2023-02-23T06:53:12.810Z,-0.39
2023-02-23T06:55:40.061Z,-1.39
2023-02-23T06:58:08.082Z,-1.17
2023-02-23T07:00:35.350Z,-1.44
2023-02-23T07:03:02.933Z,-0.88
2023-02-23T07:05:30.500Z,-0.99
2023-02-23T07:07:58.089Z,-0.40
2023-02-23T07:10:25.326Z,-0.28
2023-02-23T07:12:53.940Z,-0.06
2023-02-23T07:15:21.801Z,-0.12
2023-02-23T07:17:49.452Z,-0.20
2023-02-23T07:20:16.838Z,0.24
2023-02-23T07:22:44.575Z,1.48
2023-02-23T07:25:12.101Z,0.53
2023-02-23T07:27:39.676Z,0.88
2023-02-23T07:30:07.715Z,0.29
2023-02-23T07:32:35.465Z,0.63
2023-02-23T07:35:03.744Z,1.27
2023-02-23T07:37:31.342Z,1.17
2023-02-23T07:40:00.780Z,1.77
2023-02-23T07:42:28.897Z,1.21
2023-02-23T07:44:56.269Z,0.38
2023-02-23T07:47:30.908Z,-0.24
2023-02-23T07:49:59.876Z,1.04
2023-02-23T07:52:27.471Z,1.23
2023-02-23T07:54:54.790Z,0.49
2023-02-23T07:57:24.817Z,0.75
2023-02-23T07:59:52.208Z,0.26
2023-02-23T08:02:19.782Z,0.16
2023-02-23T08:04:47.962Z,0.83
2023-02-23T08:07:15.751Z,1.44
2023-02-23T08:09:42.954Z,1.87
2023-02-23T08:12:10.637Z,0.60
2023-02-23T08:14:37.846Z,0.93
2023-02-23T08:17:05.459Z,1.23
2023-02-23T08:19:32.825Z,1.43
2023-02-23T08:22:00.707Z,1.06
2023-02-23T08:24:29.574Z,0.18
2023-02-23T08:26:58.691Z,0.83
2023-02-23T08:29:26.018Z,1.00
2023-02-23T08:31:53.691Z,1.33
2023-02-23T08:34:22.828Z,1.60
2023-02-23T08:36:51.461Z,0.69
2023-02-23T08:39:19.058Z,0.98
2023-02-23T08:41:46.573Z,1.55
2023-02-23T08:44:13.828Z,1.63
2023-02-23T08:46:41.407Z,0.19
2023-02-23T08:49:10.884Z,0.16
2023-02-23T08:51:38.691Z,1.09
2023-02-23T08:54:10.103Z,1.74
2023-02-23T08:56:37.712Z,1.41
2023-02-23T08:59:05.126Z,0.78
2023-02-23T09:01:32.874Z,1.43
2023-02-23T09:04:01.082Z,1.23
2023-02-23T09:06:28.736Z,0.78
2023-02-23T09:08:56.473Z,0.99
2023-02-23T09:11:24.478Z,1.42
2023-02-23T09:13:51.717Z,1.49
2023-02-23T09:16:19.417Z,1.50
2023-02-23T09:18:46.647Z,2.08
2023-02-23T09:21:21.422Z,1.79
2023-02-23T09:23:51.435Z,2.15
2023-02-23T09:26:19.891Z,2.01
2023-02-23T09:28:47.634Z,3.19
2023-02-23T09:31:18.548Z,2.20
2023-02-23T09:33:46.177Z,2.69
2023-02-23T09:36:16.918Z,2.45
2023-02-23T09:38:50.394Z,2.20
2023-02-23T09:41:55.533Z,2.20
2023-02-23T09:44:42.489Z,2.45
2023-02-23T09:47:12.987Z,3.18
2023-02-23T09:49:44.612Z,3.07
2023-02-23T09:52:21.818Z,3.21
2023-02-23T09:54:49.449Z,3.95
2023-02-23T09:57:22.965Z,4.09
2023-02-23T09:59:50.273Z,2.95
2023-02-23T10:02:43.992Z,3.44
2023-02-23T10:05:17.393Z,4.31
2023-02-23T10:07:48.780Z,4.45
2023-02-23T10:10:43.896Z,2.89
2023-02-23T10:13:40.156Z,4.46
2023-02-23T10:16:29.544Z,4.77
2023-02-23T10:19:17.910Z,6.27
2023-02-23T10:21:54.498Z,4.90
2023-02-23T10:24:35.456Z,5.23
2023-02-23T10:27:20.253Z,6.32
2023-02-23T10:29:53.973Z,5.86
2023-02-23T10:32:48.216Z,6.04
2023-02-23T10:35:20.446Z,6.57
2023-02-23T10:37:49.126Z,6.00
2023-02-23T10:40:20.900Z,5.55
2023-02-23T10:42:48.308Z,5.34
2023-02-23T10:45:24.704Z,3.82
2023-02-23T10:48:21.262Z,6.20
2023-02-23T10:51:00.333Z,6.25
2023-02-23T10:53:34.252Z,6.82
2023-02-23T10:56:11.031Z,4.84
2023-02-23T10:58:48.741Z,5.01
2023-02-23T11:01:41.822Z,4.54
2023-02-23T11:04:49.961Z,5.26
2023-02-23T11:07:32.255Z,4.17
2023-02-23T11:10:19.054Z,5.31
2023-02-23T11:12:46.697Z,4.03
2023-02-23T11:15:46.431Z,4.21
2023-02-23T11:18:23.120Z,4.05
2023-02-23T11:20:51.669Z,5.41
2023-02-23T11:23:24.557Z,4.49
2023-02-23T11:26:00.220Z,4.24
2023-02-23T11:28:32.895Z,4.25
2023-02-23T11:31:15.477Z,4.38
2023-02-23T11:33:43.734Z,3.04
2023-02-23T11:36:26.942Z,2.90
2023-02-23T11:39:17.920Z,3.02
2023-02-23T11:41:45.430Z,3.31
2023-02-23T11:44:22.296Z,3.43
2023-02-23T11:46:51.749Z,3.61
2023-02-23T11:49:23.717Z,3.73
2023-02-23T11:51:52.325Z,4.35
2023-02-23T11:54:31.296Z,3.71
2023-02-23T11:57:02.365Z,4.50
2023-02-23T11:59:39.301Z,3.51
2023-02-23T12:02:25.880Z,3.90
2023-02-23T12:05:28.284Z,4.25
2023-02-23T12:08:10.688Z,3.57
2023-02-23T12:10:41.650Z,3.70
2023-02-23T12:13:38.080Z,4.39
2023-02-23T12:16:21.165Z,4.52
2023-02-23T12:19:02.857Z,3.78
2023-02-23T12:21:37.270Z,4.33
2023-02-23T12:24:30.199Z,3.80
2023-02-23T12:27:14.157Z,4.17
2023-02-23T12:30:03.844Z,4.62
2023-02-23T12:32:57.967Z,4.73
2023-02-23T12:35:31.949Z,3.50
2023-02-23T12:38:46.148Z,4.12
2023-02-23T12:41:16.476Z,4.42
2023-02-23T12:43:59.975Z,3.91
2023-02-23T12:46:43.553Z,4.16
2023-02-23T12:49:50.751Z,4.26
2023-02-23T12:52:25.912Z,4.08
2023-02-23T12:54:53.720Z,3.99
2023-02-23T12:57:32.540Z,4.46
2023-02-23T13:00:10.063Z,4.23
2023-02-23T13:03:19.189Z,4.35
2023-02-23T13:06:09.884Z,4.27
2023-02-23T13:08:47.509Z,5.01
2023-02-23T13:11:52.752Z,4.97
2023-02-23T13:14:35.211Z,3.70
2023-02-23T13:17:19.536Z,4.08
2023-02-23T13:19:53.006Z,3.73
2023-02-23T13:22:48.344Z,3.94
2023-02-23T13:25:38.354Z,3.91
2023-02-23T13:28:33.622Z,4.94
2023-02-23T13:31:02.979Z,4.28
2023-02-23T13:33:43.945Z,4.60
2023-02-23T13:36:13.035Z,4.62
2023-02-23T13:39:18.508Z,4.71
2023-02-23T13:41:51.006Z,4.35
2023-02-23T13:44:29.951Z,4.34
2023-02-23T13:47:00.560Z,4.65
2023-02-23T13:49:28.925Z,4.58
2023-02-23T13:52:01.102Z,4.51
2023-02-23T13:54:34.159Z,4.38
2023-02-23T13:57:12.976Z,4.82
2023-02-23T13:59:47.896Z,5.06
2023-02-23T14:02:37.273Z,5.01
2023-02-23T14:05:13.648Z,4.71
2023-02-23T14:07:45.145Z,4.48
2023-02-23T14:10:23.170Z,5.04
2023-02-23T14:13:26.168Z,4.54
2023-02-23T14:16:12.429Z,4.83
2023-02-23T14:19:10.690Z,4.87
2023-02-23T14:21:56.588Z,4.58
2023-02-23T14:24:27.177Z,4.89
2023-02-23T14:27:03.597Z,4.55
2023-02-23T14:29:40.076Z,4.50
2023-02-23T14:32:11.008Z,4.58
2023-02-23T14:34:52.545Z,5.20
2023-02-23T14:37:41.486Z,5.31
2023-02-23T14:40:23.387Z,4.69
2023-02-23T14:42:51.827Z,5.07
2023-02-23T14:45:28.894Z,4.46
2023-02-23T14:48:01.479Z,4.43
2023-02-23T14:50:32.596Z,4.58
2023-02-23T14:53:02.287Z,5.28
2023-02-23T14:55:33.076Z,4.82
2023-02-23T14:58:02.142Z,4.53
2023-02-23T15:00:33.133Z,5.03
2023-02-23T15:03:02.209Z,5.13
2023-02-23T15:05:45.014Z,4.82
2023-02-23T15:08:18.797Z,4.98
2023-02-23T15:10:50.026Z,4.33
2023-02-23T15:13:33.924Z,4.40
2023-02-23T15:16:08.696Z,4.75
2023-02-23T15:18:41.624Z,4.97
2023-02-23T15:21:13.870Z,4.68
2023-02-23T15:23:45.123Z,4.70
2023-02-23T15:26:24.164Z,5.10
2023-02-23T15:28:52.837Z,4.72
2023-02-23T15:31:20.408Z,4.58
2023-02-23T15:33:50.855Z,4.12
2023-02-23T15:36:34.922Z,4.47
2023-02-23T15:39:07.073Z,4.57
2023-02-23T15:41:38.535Z,4.52
2023-02-23T15:44:14.968Z,4.25
2023-02-23T15:46:45.442Z,4.50
2023-02-23T15:49:19.545Z,4.21
2023-02-23T15:51:52.868Z,3.99
2023-02-23T15:54:23.006Z,4.20
2023-02-23T15:56:57.229Z,4.26
2023-02-23T15:59:31.820Z,4.29
2023-02-23T16:02:02.940Z,4.24
2023-02-23T16:04:33.820Z,4.16
2023-02-23T16:07:20.505Z,4.00
2023-02-23T16:10:25.602Z,4.14
2023-02-23T16:12:54.536Z,4.16
2023-02-23T16:15:32.948Z,4.37
2023-02-23T16:18:10.337Z,3.87
2023-02-23T16:20:50.424Z,4.46
2023-02-23T16:23:39.401Z,4.36
2023-02-23T16:26:41.088Z,4.17
2023-02-23T16:29:14.567Z,4.00
2023-02-23T16:31:48.457Z,3.93
2023-02-23T16:34:26.700Z,4.27
2023-02-23T16:37:00.114Z,4.50
2023-02-23T16:39:30.407Z,4.39
2023-02-23T16:41:59.692Z,4.53
2023-02-23T16:44:37.805Z,4.14
2023-02-23T16:47:13.024Z,4.40
2023-02-23T16:49:40.489Z,4.51
2023-02-23T16:52:25.796Z,3.98
2023-02-23T16:54:55.757Z,4.38
2023-02-23T16:57:40.941Z,4.41
2023-02-23T17:00:18.137Z,4.46
2023-02-23T17:02:45.935Z,4.32
2023-02-23T17:05:14.908Z,3.97
2023-02-23T17:07:42.398Z,4.28
2023-02-23T17:10:24.654Z,4.87
2023-02-23T17:12:54.567Z,5.08
2023-02-23T17:15:23.499Z,4.85
2023-02-23T17:17:53.347Z,4.90
2023-02-23T17:20:21.408Z,5.25
2023-02-23T17:22:49.750Z,4.71
2023-02-23T17:25:17.832Z,4.75
2023-02-23T17:27:45.634Z,4.70
2023-02-23T17:30:13.425Z,4.77
2023-02-23T17:32:41.284Z,4.23
2023-02-23T17:35:09.855Z,4.58
2023-02-23T17:37:38.095Z,4.76
2023-02-23T17:40:08.570Z,4.54
2023-02-23T17:42:36.209Z,4.63
2023-02-23T17:45:05.888Z,4.73
2023-02-23T17:47:35.121Z,5.03
2023-02-23T17:50:02.965Z,5.11
2023-02-23T17:52:30.817Z,5.12
2023-02-23T17:54:59.456Z,5.15
2023-02-23T17:57:30.478Z,5.31
2023-02-23T17:59:57.854Z,5.37
2023-02-23T18:02:25.837Z,5.07
2023-02-23T18:04:53.201Z,5.42
2023-02-23T18:07:22.978Z,5.02
2023-02-23T18:09:50.790Z,5.35
2023-02-23T18:12:19.464Z,5.44
2023-02-23T18:14:47.093Z,5.28
2023-02-23T18:17:15.750Z,5.49
2023-02-23T18:19:45.783Z,5.46
2023-02-23T18:22:14.560Z,5.63
2023-02-23T18:24:42.539Z,5.36
2023-02-23T18:27:10.188Z,5.41
2023-02-23T18:29:37.727Z,5.63
2023-02-23T18:32:06.745Z,5.57
2023-02-23T18:34:34.895Z,5.62
2023-02-23T18:37:03.642Z,5.81
2023-02-23T18:39:32.035Z,5.85
2023-02-23T18:42:00.550Z,6.05
2023-02-23T18:44:28.245Z,5.64
2023-02-23T18:46:55.919Z,5.75
2023-02-23T18:49:25.065Z,5.86
2023-02-23T18:51:52.762Z,5.80
2023-02-23T18:54:22.523Z,5.98
2023-02-23T18:56:50.270Z,5.82
2023-02-23T18:59:17.547Z,6.05
2023-02-23T19:01:47.963Z,6.09
2023-02-23T19:04:15.384Z,6.22
2023-02-23T19:06:45.199Z,6.13
2023-02-23T19:09:14.598Z,6.23
2023-02-23T19:11:43.379Z,6.26
2023-02-23T19:14:16.198Z,6.05
2023-02-23T19:16:45.480Z,6.08
2023-02-23T19:19:13.866Z,6.06
2023-02-23T19:21:41.967Z,6.00
2023-02-23T19:24:09.293Z,6.15
2023-02-23T19:26:38.254Z,5.93
2023-02-23T19:29:05.761Z,6.06
2023-02-23T19:31:34.412Z,6.08
2023-02-23T19:34:05.000Z,6.19
2023-02-23T19:36:34.485Z,6.04
2023-02-23T19:39:15.709Z,6.07
2023-02-23T19:41:44.725Z,6.15
2023-02-23T19:44:11.982Z,6.15
2023-02-23T19:46:40.104Z,6.21
2023-02-23T19:49:07.463Z,6.24
2023-02-23T19:51:35.182Z,6.29
2023-02-23T19:54:02.892Z,6.10
2023-02-23T19:56:30.770Z,6.15
2023-02-23T19:59:01.032Z,6.15
2023-02-23T20:01:30.694Z,6.06
2023-02-23T20:04:06.618Z,6.13
2023-02-23T20:06:39.066Z,6.15
2023-02-23T20:09:07.508Z,6.42
2023-02-23T20:11:35.014Z,6.40
2023-02-23T20:14:04.382Z,6.16
2023-02-23T20:16:32.090Z,6.23
2023-02-23T20:19:00.726Z,6.22
2023-02-23T20:21:37.403Z,6.35
2023-02-23T20:24:14.657Z,6.35
2023-02-23T20:26:42.333Z,6.48
2023-02-23T20:29:11.362Z,6.45
2023-02-23T20:31:42.061Z,6.38
2023-02-23T20:34:11.232Z,6.32
2023-02-23T20:36:39.012Z,6.33
2023-02-23T20:39:06.384Z,6.39
2023-02-23T20:41:34.106Z,6.42
2023-02-23T20:44:01.518Z,6.45
2023-02-23T20:46:30.638Z,6.35
2023-02-23T20:48:59.402Z,6.57
2023-02-23T20:51:27.236Z,6.56
2023-02-23T20:53:54.922Z,6.43
2023-02-23T20:56:23.110Z,6.27
2023-02-23T20:58:50.611Z,6.53
2023-02-23T21:01:23.686Z,6.26
2023-02-23T21:03:52.637Z,6.41
2023-02-23T21:06:22.857Z,6.41
2023-02-23T21:08:51.080Z,6.48
2023-02-23T21:11:20.273Z,6.47
2023-02-23T21:13:48.140Z,6.39
2023-02-23T21:16:23.708Z,6.41
2023-02-23T21:19:03.949Z,6.44
2023-02-23T21:21:38.135Z,6.44
2023-02-23T21:24:05.560Z,6.38
2023-02-23T21:26:33.372Z,6.39
2023-02-23T21:29:01.827Z,6.63
2023-02-23T21:31:29.441Z,6.36
2023-02-23T21:33:56.818Z,6.21
2023-02-23T21:36:24.399Z,6.39
2023-02-23T21:38:51.790Z,6.47
2023-02-23T21:41:19.619Z,6.47
2023-02-23T21:43:47.829Z,6.61
2023-02-23T21:46:16.783Z,6.45
2023-02-23T21:48:44.393Z,6.65
2023-02-23T21:51:14.332Z,6.52
2023-02-23T21:53:43.387Z,6.66
2023-02-23T21:56:14.276Z,6.65
2023-02-23T21:58:47.882Z,6.62
2023-02-23T22:01:21.756Z,6.67
2023-02-23T22:03:49.940Z,6.62
2023-02-23T22:06:20.519Z,6.52
2023-02-23T22:08:51.887Z,6.65
2023-02-23T22:11:22.326Z,6.65
2023-02-23T22:13:54.492Z,6.86
2023-02-23T22:16:22.311Z,6.70
2023-02-23T22:18:50.599Z,6.68
2023-02-23T22:21:19.192Z,6.54
2023-02-23T22:23:48.055Z,6.73
2023-02-23T22:26:16.125Z,6.77
2023-02-23T22:28:43.516Z,6.77
2023-02-23T22:31:13.826Z,6.77
2023-02-23T22:33:43.802Z,6.67
2023-02-23T22:36:13.480Z,6.86
2023-02-23T22:38:41.910Z,6.77
2023-02-23T22:41:10.543Z,6.82
2023-02-23T22:43:39.186Z,6.89
2023-02-23T22:46:07.956Z,6.88
2023-02-23T22:48:36.071Z,6.91
2023-02-23T22:51:04.233Z,6.85
2023-02-23T22:53:31.510Z,6.94
2023-02-23T22:55:59.705Z,6.79
2023-02-23T22:58:26.956Z,6.80
2023-02-23T23:01:04.168Z,6.88
2023-02-23T23:03:47.427Z,6.95
2023-02-23T23:06:17.965Z,6.90
2023-02-23T23:08:47.781Z,6.69
2023-02-23T23:11:19.147Z,6.80
2023-02-23T23:13:51.869Z,6.84
2023-02-23T23:16:31.048Z,6.97
2023-02-23T23:19:12.231Z,6.71
2023-02-23T23:21:41.611Z,6.88
2023-02-23T23:24:13.422Z,6.81
2023-02-23T23:26:43.018Z,6.87
2023-02-23T23:29:13.726Z,6.70
2023-02-23T23:31:45.729Z,6.66
2023-02-23T23:34:16.768Z,6.50
2023-02-23T23:36:46.907Z,6.76
2023-02-23T23:39:16.403Z,6.62
2023-02-23T23:41:48.057Z,6.57
2023-02-23T23:44:20.140Z,6.64
2023-02-23T23:46:50.868Z,6.67
2023-02-23T23:49:25.648Z,6.75
2023-02-23T23:51:56.489Z,6.82
2023-02-23T23:54:32.558Z,6.89
2023-02-23T23:57:03.945Z,6.90
2023-02-23T23:59:32.818Z,6.81
